Time;durP1;ratioP1;P1;durP2;ratioP2;P2;SDS_P1;SDS_P2;PMS_P1;PMS_P2;Temp;Humidity;BMP_temperature;BMP_pressure;BME280_temperature;BME280_humidity;BME280_pressure;Samples;Min_cycle;Max_cycle;Signal;HPM_P1;HPM_P2
2022/07/23 00:01:32;;;;;;;8.38;5.88;;;;;;;18.99;76.94;99563.97;5105539;28;20036;-62
2022/07/23 00:03:58;;;;;;;7.55;5.90;;;;;;;18.98;77.10;99578.84;5105760;28;20042;-62
2022/07/23 00:06:24;;;;;;;10.32;6.40;;;;;;;18.97;77.56;99570.13;5105531;28;20087;-61
2022/07/23 00:08:51;;;;;;;8.10;5.80;;;;;;;18.92;77.44;99574.81;5105259;28;20066;-61
2022/07/23 00:11:17;;;;;;;10.52;5.90;;;;;;;18.90;77.99;99578.47;5105590;28;20317;-59
2022/07/23 00:13:43;;;;;;;9.20;5.88;;;;;;;18.88;77.60;99569.81;5105159;28;20045;-61
2022/07/23 00:16:09;;;;;;;10.50;6.13;;;;;;;18.86;77.99;99575.13;5105387;28;20032;-61
2022/07/23 00:18:35;;;;;;;10.40;6.07;;;;;;;18.83;77.93;99569.22;5105111;28;20049;-61
2022/07/23 00:21:01;;;;;;;12.18;6.38;;;;;;;18.83;77.95;99579.72;5105220;28;20083;-62
2022/07/23 00:23:28;;;;;;;7.10;6.40;;;;;;;18.78;78.44;99570.34;5095922;28;20032;-61
2022/07/23 00:25:55;;;;;;;8.50;5.93;;;;;;;18.79;78.64;99577.25;5099923;28;20032;-61
2022/07/23 00:28:21;;;;;;;11.52;6.10;;;;;;;18.77;78.13;99579.13;5092893;28;20039;-61
2022/07/23 00:30:46;;;;;;;9.18;6.40;;;;;;;18.72;78.42;99570.66;5085930;28;20064;-61
2022/07/23 00:33:12;;;;;;;7.97;4.90;;;;;;;18.72;77.75;99575.91;5087024;28;20027;-61
2022/07/23 00:35:40;;;;;;;7.28;5.18;;;;;;;18.72;78.36;99577.72;5104323;28;20023;-61
2022/07/23 00:38:09;;;;;;;8.63;5.78;;;;;;;18.44;78.50;99534.66;5102291;28;20030;-61
2022/07/23 00:40:35;;;;;;;9.20;5.88;;;;;;;18.67;78.75;99577.97;5105484;28;20087;-61
2022/07/23 00:43:02;;;;;;;8.55;6.10;;;;;;;18.65;79.04;99579.00;5104910;28;20092;-61
2022/07/23 00:45:28;;;;;;;10.85;6.15;;;;;;;18.59;78.80;99580.19;5104573;28;20249;-61
2022/07/23 00:47:53;;;;;;;12.07;5.35;;;;;;;18.59;79.59;99582.81;5104527;28;20028;-62
2022/07/23 00:50:19;;;;;;;5.72;5.10;;;;;;;18.60;79.05;99582.72;5103607;28;20039;-62
2022/07/23 00:52:45;;;;;;;7.85;5.80;;;;;;;18.63;79.57;99582.53;5104613;28;20031;-62
2022/07/23 00:55:12;;;;;;;9.05;5.88;;;;;;;18.62;79.21;99572.97;5104400;28;20038;-62
2022/07/23 00:57:39;;;;;;;9.93;5.70;;;;;;;18.57;79.05;99580.28;5103145;28;20036;-62
2022/07/23 01:00:08;;;;;;;9.07;5.55;;;;;;;18.51;79.16;99564.03;5104427;28;20032;-61
2022/07/23 01:02:34;;;;;;;9.57;5.45;;;;;;;18.56;79.82;99572.50;5104321;28;20059;-61
2022/07/23 01:05:00;;;;;;;10.68;6.07;;;;;;;18.53;79.93;99581.38;5104259;28;20051;-61
2022/07/23 01:07:25;;;;;;;8.32;5.72;;;;;;;18.52;79.94;99578.84;5104144;28;20027;-61
2022/07/23 01:09:54;;;;;;;10.57;5.85;;;;;;;18.53;79.71;99581.38;5104225;28;20553;-61
2022/07/23 01:12:19;;;;;;;7.03;5.45;;;;;;;18.48;80.13;99585.19;5103033;28;20035;-61
2022/07/23 01:14:45;;;;;;;9.90;5.80;;;;;;;18.46;80.04;99585.28;5101630;28;20028;-61
2022/07/23 01:17:11;;;;;;;8.20;5.68;;;;;;;18.44;79.68;99582.72;5091812;28;20023;-61
2022/07/23 01:19:36;;;;;;;14.15;5.78;;;;;;;18.39;79.88;99576.06;5103876;28;20586;-62
2022/07/23 01:22:03;;;;;;;7.88;5.20;;;;;;;18.40;80.72;99581.22;5103971;28;20028;-61
2022/07/23 01:24:29;;;;;;;8.95;5.25;;;;;;;18.33;80.28;99572.00;5103749;28;20077;-60
2022/07/23 01:26:55;;;;;;;8.40;5.13;;;;;;;18.45;80.15;99580.94;5104219;28;20255;-61
2022/07/23 01:29:21;;;;;;;11.23;5.47;;;;;;;18.43;80.48;99582.81;5103902;28;20044;-61
2022/07/23 01:31:47;;;;;;;7.93;5.47;;;;;;;18.41;80.11;99585.53;5102526;28;20028;-60
2022/07/23 01:34:13;;;;;;;10.68;5.65;;;;;;;18.41;80.38;99588.16;5103725;28;20032;-60
2022/07/23 01:36:39;;;;;;;13.23;6.30;;;;;;;18.38;80.40;99582.22;5103510;28;20027;-60
2022/07/23 01:39:05;;;;;;;10.55;5.65;;;;;;;18.32;80.48;99575.53;5102329;28;20035;-60
2022/07/23 01:41:31;;;;;;;9.82;5.88;;;;;;;18.35;80.53;99580.59;5103683;28;20274;-59
2022/07/23 01:43:57;;;;;;;9.77;5.20;;;;;;;18.25;80.90;99566.31;5103609;28;20032;-60
2022/07/23 01:46:23;;;;;;;10.68;5.38;;;;;;;18.33;80.28;99572.00;5107985;28;20228;-61
2022/07/23 01:48:48;;;;;;;9.52;5.75;;;;;;;18.36;80.72;99574.44;5102968;28;20038;-60
2022/07/23 01:51:14;;;;;;;7.40;5.35;;;;;;;18.33;79.89;99572.00;5103569;28;20058;-60
2022/07/23 01:53:40;;;;;;;8.15;5.57;;;;;;;18.33;80.66;99579.00;5103295;28;20055;-60
2022/07/23 01:56:06;;;;;;;9.45;5.80;;;;;;;18.25;80.88;99563.69;5101774;28;20027;-61
2022/07/23 01:58:32;;;;;;;9.75;5.40;;;;;;;18.34;80.73;99578.06;5102797;28;20210;-60
2022/07/23 02:00:58;;;;;;;10.25;5.20;;;;;;;18.32;80.75;99578.16;5103133;28;20020;-60
2022/07/23 02:03:24;;;;;;;10.93;5.40;;;;;;;18.27;80.29;99574.94;5103243;28;20028;-60
2022/07/23 02:05:49;;;;;;;8.52;4.93;;;;;;;18.28;80.65;99572.25;5102405;28;20374;-60
2022/07/23 02:08:15;;;;;;;11.52;5.47;;;;;;;18.30;80.57;99572.16;5101502;28;20024;-60
2022/07/23 02:10:41;;;;;;;12.18;5.38;;;;;;;18.30;81.11;99569.56;5103125;28;20016;-60
2022/07/23 02:13:07;;;;;;;9.10;5.80;;;;;;;18.36;80.31;99571.81;5103029;28;20100;-61
2022/07/23 02:15:33;;;;;;;9.73;6.10;;;;;;;18.38;81.38;99572.56;5102790;28;20247;-61
2022/07/23 02:17:59;;;;;;;9.25;6.10;;;;;;;18.35;81.23;99575.38;5101227;28;20020;-62
2022/07/23 02:20:24;;;;;;;7.82;5.50;;;;;;;18.38;81.19;99571.72;5102855;28;20201;-61
2022/07/23 02:22:50;;;;;;;7.18;5.32;;;;;;;18.40;81.22;99575.97;5102926;28;20070;-61
2022/07/23 02:25:16;;;;;;;11.45;5.40;;;;;;;18.42;81.26;99568.00;5101042;28;20043;-61
2022/07/23 02:27:42;;;;;;;8.80;5.78;;;;;;;18.44;81.63;99574.00;5092947;28;20036;-61
2022/07/23 02:30:08;;;;;;;12.10;6.03;;;;;;;18.46;81.13;99575.63;5082981;28;20054;-61
2022/07/23 02:32:34;;;;;;;11.68;5.40;;;;;;;18.49;81.41;99576.38;5101989;28;20031;-61
2022/07/23 02:35:01;;;;;;;9.95;6.20;;;;;;;18.50;81.23;99580.69;5100995;28;20036;-61
2022/07/23 02:37:26;;;;;;;12.57;6.13;;;;;;;18.50;81.10;99578.06;5101236;28;20093;-61
2022/07/23 02:39:52;;;;;;;10.70;6.00;;;;;;;18.52;80.77;99574.44;5102368;28;20028;-62
2022/07/23 02:42:18;;;;;;;11.57;5.75;;;;;;;18.58;80.65;99573.22;5102309;28;20031;-63
2022/07/23 02:44:43;;;;;;;12.70;6.15;;;;;;;18.63;80.62;99582.53;5102664;28;20035;-62
2022/07/23 02:47:09;;;;;;;11.27;6.18;;;;;;;18.69;80.86;99577.88;5102460;28;20389;-62
2022/07/23 02:49:35;;;;;;;10.77;6.50;;;;;;;18.74;81.20;99578.44;5101234;28;20308;-61
2022/07/23 02:52:00;;;;;;;15.85;6.32;;;;;;;18.82;80.47;99572.78;5102565;28;20048;-61
2022/07/23 02:54:26;;;;;;;11.60;6.07;;;;;;;18.87;81.01;99578.63;5102265;28;20316;-61
2022/07/23 02:56:52;;;;;;;10.20;5.90;;;;;;;18.92;80.38;99576.59;5102373;28;20488;-61
2022/07/23 02:59:18;;;;;;;6.60;5.90;;;;;;;18.96;80.00;99570.22;5102418;28;20035;-60
2022/07/23 03:01:44;;;;;;;7.97;6.32;;;;;;;19.04;80.13;99573.25;5101693;28;20024;-60
2022/07/23 03:04:10;;;;;;;8.70;6.00;;;;;;;18.99;80.26;99562.16;5102169;28;20036;-61
2022/07/23 03:06:36;;;;;;;7.18;6.20;;;;;;;19.05;79.41;99574.09;5102156;28;20040;-60
2022/07/23 03:09:02;;;;;;;12.10;6.65;;;;;;;19.13;79.40;99585.84;5102049;28;20202;-60
2022/07/23 03:11:28;;;;;;;6.35;5.72;;;;;;;19.20;79.45;99577.63;5101756;28;20328;-61
2022/07/23 03:13:54;;;;;;;9.60;6.45;;;;;;;19.26;79.53;99587.75;5101890;28;20027;-61
2022/07/23 03:16:19;;;;;;;11.85;6.70;;;;;;;19.29;79.11;99588.41;5102106;28;20032;-61
2022/07/23 03:18:45;;;;;;;9.13;7.57;;;;;;;19.35;78.88;99579.31;5102080;28;20316;-61
2022/07/23 03:21:11;;;;;;;9.27;7.30;;;;;;;19.42;78.81;99580.63;5100947;28;20077;-61
2022/07/23 03:23:36;;;;;;;8.15;6.90;;;;;;;19.47;78.47;99578.59;5102194;28;20028;-61
2022/07/23 03:26:02;;;;;;;10.57;7.20;;;;;;;19.52;78.75;99586.19;5102014;28;20324;-61
2022/07/23 03:28:28;;;;;;;8.13;6.53;;;;;;;19.56;78.81;99589.47;5101860;28;20054;-61
2022/07/23 03:30:53;;;;;;;10.60;7.20;;;;;;;19.61;78.25;99592.66;5102019;28;20024;-61
2022/07/23 03:33:20;;;;;;;11.30;7.25;;;;;;;19.70;78.03;99594.75;5102189;28;20370;-60
2022/07/23 03:35:47;;;;;;;11.02;6.65;;;;;;;19.78;77.91;99603.00;5101922;28;20460;-61
2022/07/23 03:38:13;;;;;;;7.57;6.80;;;;;;;19.82;78.03;99599.28;5101614;28;20233;-60
2022/07/23 03:40:39;;;;;;;9.35;7.32;;;;;;;19.86;77.78;99593.84;5101693;28;20061;-60
2022/07/23 03:43:05;;;;;;;9.93;6.93;;;;;;;19.91;78.41;99597.00;5100335;28;20024;-61
2022/07/23 03:45:31;;;;;;;9.40;6.57;;;;;;;19.97;77.73;99594.03;5101911;28;20217;-60
2022/07/23 03:47:57;;;;;;;9.73;7.07;;;;;;;20.02;77.72;99594.56;5081744;28;20024;-60
2022/07/23 03:50:23;;;;;;;8.95;6.07;;;;;;;20.20;77.50;99589.09;5101802;28;20537;-60
2022/07/23 03:52:48;;;;;;;8.13;6.57;;;;;;;20.41;76.36;99590.38;5101803;28;20316;-61
2022/07/23 03:55:14;;;;;;;6.78;6.10;;;;;;;20.41;76.36;99587.75;5100734;28;20024;-61
2022/07/23 03:57:40;;;;;;;10.68;6.85;;;;;;;20.47;76.48;99589.13;5101613;28;20060;-61
2022/07/23 04:00:09;;;;;;;7.53;5.85;;;;;;;20.47;76.24;99576.81;5101912;28;20024;-61
2022/07/23 04:02:36;;;;;;;9.13;6.50;;;;;;;20.60;76.17;99590.03;5101604;28;20035;-61
2022/07/23 04:05:02;;;;;;;12.77;6.15;;;;;;;20.67;76.12;99598.41;5101814;28;20043;-61
2022/07/23 04:07:28;;;;;;;8.15;6.25;;;;;;;20.68;75.90;99592.22;5101511;28;20024;-61
2022/07/23 04:09:54;;;;;;;9.35;6.43;;;;;;;20.71;75.80;99601.66;5101764;28;20028;-60
2022/07/23 04:12:20;;;;;;;7.18;6.13;;;;;;;20.74;75.66;99594.44;5103067;28;20020;-61
2022/07/23 04:14:45;;;;;;;7.38;5.70;;;;;;;20.76;75.47;99584.63;5105445;28;20208;-61
2022/07/23 04:17:11;;;;;;;9.48;6.28;;;;;;;20.89;75.39;99591.72;5105665;28;20023;-61
2022/07/23 04:19:40;;;;;;;7.88;5.72;;;;;;;20.96;75.01;99591.22;5105111;28;20047;-61
2022/07/23 04:22:07;;;;;;;7.28;5.72;;;;;;;20.98;75.09;99591.13;5105226;28;20075;-61
2022/07/23 04:24:33;;;;;;;6.60;5.90;;;;;;;21.03;75.32;99604.81;5105236;28;20036;-61
2022/07/23 04:26:59;;;;;;;9.13;5.95;;;;;;;21.13;75.16;99599.78;5105387;28;20331;-61
2022/07/23 04:29:24;;;;;;;8.63;6.03;;;;;;;21.14;74.98;99597.06;5104973;28;20111;-61
2022/07/23 04:31:51;;;;;;;7.72;6.38;;;;;;;21.21;74.29;99600.97;5105067;28;20228;-62
2022/07/23 04:34:16;;;;;;;11.15;6.38;;;;;;;21.28;74.24;99604.03;5104945;28;20024;-60
2022/07/23 04:36:42;;;;;;;7.40;6.05;;;;;;;21.35;74.37;99599.22;5104830;28;20035;-62
2022/07/23 04:39:08;;;;;;;11.07;6.75;;;;;;;21.40;73.93;99610.25;5105068;28;20020;-61
2022/07/23 04:41:34;;;;;;;9.48;6.95;;;;;;;21.45;74.01;99607.31;5105013;28;20024;-61
2022/07/23 04:44:00;;;;;;;7.05;6.30;;;;;;;21.53;73.87;99602.38;5103980;28;20038;-60
2022/07/23 04:46:26;;;;;;;8.20;5.80;;;;;;;21.53;73.88;99590.06;5104540;28;20070;-61
2022/07/23 04:48:52;;;;;;;8.43;6.18;;;;;;;21.66;73.45;99600.63;5104447;28;20215;-62
2022/07/23 04:51:17;;;;;;;7.72;6.07;;;;;;;21.69;73.49;99596.91;5104677;28;20077;-61
2022/07/23 04:53:43;;;;;;;9.85;6.78;;;;;;;21.60;73.32;99566.75;5104778;28;20057;-61
2022/07/23 04:56:08;;;;;;;6.60;5.30;;;;;;;21.88;73.30;99594.69;5103931;28;20209;-63
2022/07/23 04:58:34;;;;;;;7.05;5.85;;;;;;;21.94;73.07;99592.56;5104177;28;20097;-63
2022/07/23 05:01:00;;;;;;;8.57;6.13;;;;;;;22.01;71.40;99584.09;5102456;28;20020;-63
2022/07/23 05:03:26;;;;;;;9.40;6.15;;;;;;;22.12;72.20;99580.72;5104173;28;20077;-63
2022/07/23 05:05:51;;;;;;;7.65;6.22;;;;;;;22.44;71.77;99587.28;5104531;28;20032;-63
2022/07/23 05:08:17;;;;;;;9.00;5.95;;;;;;;22.64;70.68;99567.34;5104309;28;20027;-63
2022/07/23 05:10:43;;;;;;;10.13;6.47;;;;;;;22.74;69.58;99573.63;5104170;28;20055;-62
2022/07/23 05:13:08;;;;;;;10.20;6.53;;;;;;;22.75;69.95;99577.97;5104389;28;20049;-62
2022/07/23 05:15:34;;;;;;;8.95;6.28;;;;;;;22.84;70.54;99566.72;5104083;28;20042;-62
2022/07/23 05:18:00;;;;;;;11.68;6.80;;;;;;;22.87;69.96;99568.28;5103101;28;20069;-62
2022/07/23 05:20:25;;;;;;;9.82;6.22;;;;;;;22.95;69.31;99573.00;5102212;28;20032;-62
2022/07/23 05:22:51;;;;;;;9.30;5.93;;;;;;;23.08;69.28;99566.66;5090477;28;20028;-62
2022/07/23 05:25:17;;;;;;;11.23;5.95;;;;;;;23.21;69.46;99568.41;5093460;28;20075;-63
2022/07/23 05:27:42;;;;;;;8.77;6.30;;;;;;;23.27;69.01;99563.50;5102549;28;20031;-62
2022/07/23 05:30:09;;;;;;;9.25;6.15;;;;;;;23.39;68.37;99576.75;5096030;28;20059;-62
2022/07/23 05:32:36;;;;;;;9.80;6.63;;;;;;;23.35;67.96;99573.47;5103618;28;20107;-62
2022/07/23 05:35:03;;;;;;;9.27;6.28;;;;;;;23.46;66.62;99571.81;5103908;28;20046;-62
2022/07/23 05:37:28;;;;;;;8.80;5.97;;;;;;;23.56;67.11;99578.91;5103624;28;20023;-62
2022/07/23 05:39:54;;;;;;;11.13;6.32;;;;;;;23.47;66.90;99542.59;5103520;28;20023;-62
2022/07/23 05:42:20;;;;;;;9.98;5.93;;;;;;;23.83;66.10;99582.16;5100657;28;20205;-62
2022/07/23 05:44:45;;;;;;;6.50;5.80;;;;;;;23.86;66.27;99577.50;5094265;28;20032;-62
2022/07/23 05:47:11;;;;;;;6.88;5.70;;;;;;;23.87;66.18;99567.78;5103526;28;20032;-62
2022/07/23 05:49:38;;;;;;;8.90;6.10;;;;;;;23.91;67.10;99578.00;5103491;28;20037;-62
2022/07/23 05:52:07;;;;;;;6.15;5.55;;;;;;;23.93;66.10;99570.78;5103394;28;20031;-63
2022/07/23 05:54:36;;;;;;;9.68;5.95;;;;;;;24.03;63.90;99581.47;5103649;28;20109;-62
2022/07/23 05:57:02;;;;;;;6.85;6.15;;;;;;;24.09;65.49;99580.16;5103505;28;20035;-62
2022/07/23 05:59:27;;;;;;;6.85;6.07;;;;;;;24.16;63.00;99573.41;5091272;28;20036;-62
2022/07/23 06:01:53;;;;;;;8.35;5.97;;;;;;;24.21;64.03;99578.31;5103185;28;20070;-61
2022/07/23 06:04:19;;;;;;;6.75;5.63;;;;;;;24.34;63.26;99572.88;5102880;28;20095;-62
2022/07/23 06:06:44;;;;;;;10.07;6.05;;;;;;;24.39;62.32;99576.84;5103138;28;20039;-62
2022/07/23 06:09:13;;;;;;;7.95;6.07;;;;;;;24.38;63.67;99574.31;5101168;28;20027;-62
2022/07/23 06:11:39;;;;;;;7.90;6.28;;;;;;;24.46;64.10;99572.72;5094059;28;20070;-63
2022/07/23 06:14:05;;;;;;;8.60;5.90;;;;;;;24.51;63.96;99571.50;5094358;28;20012;-63
2022/07/23 06:16:31;;;;;;;5.93;5.40;;;;;;;24.60;63.20;99568.16;5096564;28;20034;-63
2022/07/23 06:18:56;;;;;;;9.73;6.00;;;;;;;24.64;63.59;99569.56;5095564;28;20048;-63
2022/07/23 06:21:22;;;;;;;10.32;6.50;;;;;;;24.67;63.59;99571.13;5095341;28;20033;-63
2022/07/23 06:23:48;;;;;;;6.57;5.78;;;;;;;24.71;62.54;99568.09;5095615;28;20031;-63
2022/07/23 06:26:14;;;;;;;6.97;6.05;;;;;;;24.82;61.77;99577.81;5089931;28;20081;-63
2022/07/23 06:28:39;;;;;;;7.88;5.90;;;;;;;24.75;61.20;99563.38;5093081;28;20040;-63
2022/07/23 06:31:05;;;;;;;7.20;6.15;;;;;;;24.91;63.04;99573.53;5089831;28;20248;-63
2022/07/23 06:33:30;;;;;;;8.55;6.40;;;;;;;24.91;60.76;99558.50;5088980;28;20068;-63
2022/07/23 06:35:56;;;;;;;6.80;6.10;;;;;;;25.04;61.06;99565.41;5087085;28;20039;-62
2022/07/23 06:38:22;;;;;;;7.53;6.60;;;;;;;25.05;61.26;99552.03;5102305;28;20036;-63
2022/07/23 06:40:47;;;;;;;7.63;6.82;;;;;;;25.14;61.95;99561.88;5102425;28;20038;-63
2022/07/23 06:43:13;;;;;;;7.70;5.95;;;;;;;25.13;60.52;99562.81;5102539;28;20335;-63
2022/07/23 06:45:38;;;;;;;7.25;6.55;;;;;;;25.17;60.70;99566.06;5106819;28;20032;-64
2022/07/23 06:48:04;;;;;;;7.93;6.05;;;;;;;25.24;59.52;99558.41;5102558;28;20325;-63
2022/07/23 06:50:30;;;;;;;6.65;5.90;;;;;;;25.29;61.16;99559.69;5102145;28;20038;-62
2022/07/23 06:52:56;;;;;;;7.07;6.38;;;;;;;25.30;60.86;99563.22;5102476;28;20023;-61
2022/07/23 06:55:21;;;;;;;8.90;6.40;;;;;;;25.36;60.63;99556.59;5102018;28;20024;-62
2022/07/23 06:57:47;;;;;;;7.72;6.57;;;;;;;25.47;61.09;99561.81;5084310;28;20049;-62
2022/07/23 07:00:13;;;;;;;6.93;6.32;;;;;;;25.54;59.26;99562.97;5101934;28;20024;-62
2022/07/23 07:02:38;;;;;;;7.25;6.55;;;;;;;25.68;60.86;99559.09;5102181;28;20087;-63
2022/07/23 07:05:04;;;;;;;8.82;6.35;;;;;;;25.65;59.71;99559.34;5102315;28;20028;-62
2022/07/23 07:07:30;;;;;;;6.93;6.32;;;;;;;25.78;58.40;99549.38;5100600;28;20024;-61
2022/07/23 07:09:55;;;;;;;6.72;5.95;;;;;;;25.77;57.47;99550.34;5101976;28;20035;-61
2022/07/23 07:12:21;;;;;;;7.80;7.00;;;;;;;25.87;57.55;99545.06;5101147;28;20028;-61
2022/07/23 07:14:47;;;;;;;8.25;6.38;;;;;;;25.81;56.85;99550.91;5102209;28;20337;-61
2022/07/23 07:17:12;;;;;;;7.53;6.75;;;;;;;25.82;56.36;99550.78;5102286;28;20047;-61
2022/07/23 07:19:38;;;;;;;7.25;6.65;;;;;;;25.98;56.50;99550.28;5101839;28;20024;-61
2022/07/23 07:22:03;;;;;;;8.25;6.70;;;;;;;25.97;57.83;99551.25;5100850;28;20020;-61
2022/07/23 07:24:29;;;;;;;8.73;7.22;;;;;;;25.83;57.95;99519.78;5101855;28;20065;-61
2022/07/23 07:26:54;;;;;;;7.70;6.90;;;;;;;26.05;56.94;99539.13;5102037;28;20054;-62
2022/07/23 07:29:20;;;;;;;9.15;6.72;;;;;;;26.16;57.41;99553.13;5100525;28;20055;-61
2022/07/23 07:31:46;;;;;;;6.57;5.97;;;;;;;26.22;56.47;99545.59;5099001;28;20077;-62
2022/07/23 07:34:11;;;;;;;8.15;7.07;;;;;;;26.21;56.89;99549.22;5088907;28;20031;-62
2022/07/23 07:36:37;;;;;;;8.38;6.72;;;;;;;26.17;55.69;99549.50;5084149;28;20317;-62
2022/07/23 07:39:06;;;;;;;7.95;7.15;;;;;;;26.25;56.63;99540.00;5101748;28;20040;-62
2022/07/23 07:41:32;;;;;;;7.40;6.70;;;;;;;26.32;57.52;99555.28;5101783;28;20031;-62
2022/07/23 07:43:57;;;;;;;7.93;6.60;;;;;;;26.42;55.19;99549.13;5102099;28;20028;-62
2022/07/23 07:46:23;;;;;;;9.73;6.88;;;;;;;26.45;55.41;99551.50;5106292;28;20024;-63
2022/07/23 07:48:50;;;;;;;9.45;6.85;;;;;;;26.36;55.63;99550.50;5095299;28;20016;-62
2022/07/23 07:51:16;;;;;;;8.43;6.90;;;;;;;26.53;57.27;99555.13;5102048;28;20131;-65
2022/07/23 07:53:41;;;;;;;9.32;7.10;;;;;;;26.54;56.11;99550.66;5097460;28;20319;-64
2022/07/23 07:56:07;;;;;;;8.30;7.18;;;;;;;26.59;55.55;99551.06;5104264;28;20024;-64
2022/07/23 07:58:33;;;;;;;8.60;7.38;;;;;;;26.63;55.32;99555.13;5104163;28;20284;-65
2022/07/23 08:00:58;;;;;;;7.85;7.15;;;;;;;26.67;54.69;99556.53;5104157;28;20023;-64
2022/07/23 08:03:24;;;;;;;7.43;6.70;;;;;;;26.74;54.97;99543.56;5104234;28;20024;-65
2022/07/23 08:05:50;;;;;;;7.95;6.75;;;;;;;26.85;55.14;99547.88;5103968;28;20576;-64
2022/07/23 08:08:15;;;;;;;8.30;7.50;;;;;;;26.86;54.44;99554.88;5103648;28;20204;-64
2022/07/23 08:10:41;;;;;;;8.57;7.30;;;;;;;26.91;55.60;99557.97;5103535;28;20020;-64
2022/07/23 08:13:07;;;;;;;9.05;8.23;;;;;;;26.79;53.57;99551.09;5103830;28;20152;-64
2022/07/23 08:15:32;;;;;;;8.57;7.78;;;;;;;26.78;54.24;99552.09;5104545;28;20032;-63
2022/07/23 08:17:59;;;;;;;8.07;7.35;;;;;;;26.96;54.80;99550.38;5104698;28;20267;-64
2022/07/23 08:20:25;;;;;;;8.95;7.43;;;;;;;26.95;55.31;99556.72;5104944;28;20024;-64
2022/07/23 08:22:59;;;;;;;7.50;6.80;;;;;;;26.87;53.40;99524.69;5105000;28;20024;-63
2022/07/23 08:25:34;;;;;;;8.77;7.45;;;;;;;27.05;55.28;99540.75;5105615;28;20066;-64
2022/07/23 08:28:01;;;;;;;8.75;7.70;;;;;;;27.01;53.59;99553.47;5104775;28;20024;-64
2022/07/23 08:30:29;;;;;;;8.40;7.60;;;;;;;27.06;53.26;99549.53;5104708;28;20076;-65
2022/07/23 08:32:54;;;;;;;8.05;7.30;;;;;;;27.08;53.42;99551.09;5105022;28;20093;-64
2022/07/23 08:35:26;;;;;;;11.63;8.18;;;;;;;26.75;53.72;99507.19;5104736;28;20032;-65
2022/07/23 08:37:51;;;;;;;10.32;7.78;;;;;;;26.84;55.29;99546.22;5104660;28;20090;-66
2022/07/23 08:40:19;;;;;;;10.18;7.95;;;;;;;26.70;55.14;99537.69;5102604;28;20313;-65
2022/07/23 08:42:48;;;;;;;9.18;7.65;;;;;;;26.42;54.98;99501.31;5087297;28;20201;-64
2022/07/23 08:45:17;;;;;;;8.55;7.38;;;;;;;26.68;53.77;99528.16;5109004;28;20031;-64
2022/07/23 08:47:43;;;;;;;11.52;8.00;;;;;;;26.83;53.68;99529.41;5104277;28;20039;-64
2022/07/23 08:50:10;;;;;;;8.75;7.88;;;;;;;26.93;52.11;99529.41;5102221;28;20031;-64
2022/07/23 08:52:37;;;;;;;10.50;7.43;;;;;;;26.90;53.85;99529.69;5104039;28;20016;-64
2022/07/23 08:55:03;;;;;;;8.80;7.68;;;;;;;26.83;54.07;99533.91;5103579;28;20316;-60
2022/07/23 08:57:29;;;;;;;10.40;9.40;;;;;;;26.78;54.14;99530.81;5104428;28;20038;-62
2022/07/23 08:59:56;;;;;;;8.82;8.02;;;;;;;26.72;54.64;99532.22;5101941;28;20055;-63
2022/07/23 09:02:21;;;;;;;11.75;7.68;;;;;;;26.79;53.08;99522.72;5104136;28;20239;-61
2022/07/23 09:04:47;;;;;;;8.18;7.43;;;;;;;26.94;54.02;99522.28;5104295;28;20031;-61
2022/07/23 09:07:13;;;;;;;8.00;7.30;;;;;;;26.78;53.06;99520.19;5104364;28;20093;-63
2022/07/23 09:09:39;;;;;;;8.50;7.70;;;;;;;26.88;54.09;99518.38;5103799;28;20031;-63
2022/07/23 09:12:09;;;;;;;8.18;7.38;;;;;;;27.01;55.20;99531.38;5103809;28;20328;-62
2022/07/23 09:14:37;;;;;;;12.60;8.10;;;;;;;27.02;54.26;99523.25;5101289;28;20263;-61
2022/07/23 09:17:17;;;;;;;9.60;7.78;;;;;;;26.93;56.04;99524.09;5104195;28;20245;-62
2022/07/23 09:19:45;;;;;;;8.93;8.02;;;;;;;27.03;56.53;99521.41;5102644;28;20309;-62
2022/07/23 09:22:28;;;;;;;8.60;7.70;;;;;;;27.00;51.89;99514.56;5103799;28;20305;-62
2022/07/23 09:25:04;;;;;;;8.80;7.72;;;;;;;27.14;53.91;99512.44;5101795;28;20304;-63
2022/07/23 09:28:02;;;;;;;8.75;7.32;;;;;;;27.24;50.69;99515.91;5103505;28;20055;-62
2022/07/23 09:30:30;;;;;;;8.18;7.43;;;;;;;27.28;51.66;99521.78;5097734;28;20055;-62
2022/07/23 09:33:20;;;;;;;8.43;7.68;;;;;;;27.18;52.07;99513.84;5100544;28;20394;-62
2022/07/23 09:35:53;;;;;;;9.15;7.82;;;;;;;27.18;50.45;99495.22;5100696;28;20047;-63
2022/07/23 09:38:21;;;;;;;15.25;8.50;;;;;;;27.29;52.39;99513.66;5078219;28;20017;-62
2022/07/23 09:41:07;;;;;;;9.52;7.65;;;;;;;27.03;49.90;99490.34;5080636;28;20111;-62
2022/07/23 09:43:33;;;;;;;8.23;7.53;;;;;;;27.14;50.78;99521.25;5094505;28;20027;-62
2022/07/23 09:46:18;;;;;;;9.40;8.50;;;;;;;27.04;50.39;99525.75;5097271;28;20031;-63
2022/07/23 09:48:43;;;;;;;8.75;7.85;;;;;;;27.07;51.49;99506.03;5098696;28;20036;-63
2022/07/23 09:51:09;;;;;;;8.70;7.88;;;;;;;27.24;52.19;99515.09;5102308;28;20039;-63
2022/07/23 09:53:35;;;;;;;9.57;8.30;;;;;;;27.37;52.32;99515.63;5102969;28;20020;-64
2022/07/23 09:56:01;;;;;;;9.70;8.10;;;;;;;27.36;50.76;99514.78;5103171;28;20316;-63
2022/07/23 09:58:28;;;;;;;10.63;8.50;;;;;;;27.35;50.65;99505.13;5102913;28;20091;-64
2022/07/23 10:00:55;;;;;;;10.15;8.35;;;;;;;27.33;51.07;99512.38;5102849;28;20044;-63
2022/07/23 10:03:23;;;;;;;8.35;7.55;;;;;;;27.51;50.88;99504.50;5101991;28;20024;-63
2022/07/23 10:05:50;;;;;;;9.63;8.18;;;;;;;27.50;50.47;99500.16;5094121;28;20032;-63
2022/07/23 10:08:18;;;;;;;10.00;7.78;;;;;;;27.62;49.61;99503.50;5092976;28;20031;-64
2022/07/23 10:10:46;;;;;;;8.80;8.10;;;;;;;27.64;47.91;99512.16;5095448;28;20276;-63
2022/07/23 10:15:41;;;;;;;8.70;7.88;;;;;;;27.84;49.15;99496.91;5092425;28;20043;-64
2022/07/23 10:18:10;;;;;;;9.57;8.65;;;;;;;27.58;49.27;99454.22;5093955;28;20217;-65
2022/07/23 10:20:35;;;;;;;8.57;7.88;;;;;;;27.90;48.44;99500.81;5093838;28;20031;-65
2022/07/23 10:23:27;;;;;;;9.43;8.52;;;;;;;27.66;49.76;99456.97;5096282;28;20069;-62
2022/07/23 10:26:05;;;;;;;9.82;8.82;;;;;;;27.67;50.10;99479.09;5094815;28;20342;-63
2022/07/23 10:28:52;;;;;;;9.40;8.50;;;;;;;27.62;47.26;99486.66;5094729;28;20071;-62
2022/07/23 10:31:46;;;;;;;9.65;8.65;;;;;;;27.66;46.08;99488.03;5098057;28;20039;-62
2022/07/23 10:34:35;;;;;;;9.77;8.35;;;;;;;27.58;48.87;99448.88;5099208;28;20027;-63
2022/07/23 10:37:28;;;;;;;9.15;8.25;;;;;;;27.79;47.46;99482.38;5102515;28;20034;-62
2022/07/23 10:40:16;;;;;;;9.52;8.05;;;;;;;27.92;47.19;99493.53;5102359;28;20078;-61
2022/07/23 10:42:44;;;;;;;10.10;9.13;;;;;;;28.01;48.97;99478.50;5100962;28;20044;-62
2022/07/23 10:45:33;;;;;;;9.45;8.45;;;;;;;27.96;46.46;99470.06;5096788;28;20221;-62
2022/07/23 10:48:27;;;;;;;9.00;8.02;;;;;;;27.95;44.61;99476.38;5101648;28;20055;-61
2022/07/23 10:51:08;;;;;;;9.40;8.35;;;;;;;28.02;47.72;99465.03;5090136;28;20028;-62
2022/07/23 10:54:04;;;;;;;8.98;8.10;;;;;;;28.15;46.45;99461.16;5097969;28;20024;-62
2022/07/23 10:56:53;;;;;;;9.35;8.35;;;;;;;28.20;46.81;99458.88;5075837;28;20218;-63
2022/07/23 10:59:19;;;;;;;10.23;8.95;;;;;;;28.24;48.91;99460.22;5096566;28;20031;-63
2022/07/23 11:01:44;;;;;;;9.98;8.05;;;;;;;28.16;47.75;99445.03;5102060;28;20028;-62
2022/07/23 11:04:11;;;;;;;10.45;8.60;;;;;;;28.18;46.82;99451.03;5100629;28;20031;-63
2022/07/23 11:06:49;;;;;;;8.95;8.05;;;;;;;28.19;46.55;99447.38;5101850;28;20024;-61
2022/07/23 11:09:37;;;;;;;9.32;8.35;;;;;;;28.26;48.91;99452.09;5102205;28;20242;-61
2022/07/23 11:12:28;;;;;;;10.02;8.25;;;;;;;28.27;48.46;99449.28;5101955;28;20205;-62
2022/07/23 11:15:14;;;;;;;8.57;7.78;;;;;;;28.10;48.07;99410.19;5101863;28;20068;-62
2022/07/23 11:17:43;;;;;;;10.00;7.90;;;;;;;28.24;48.88;99442.41;5101763;28;20031;-63
2022/07/23 11:20:13;;;;;;;9.52;8.02;;;;;;;28.31;48.51;99439.16;5101687;28;20100;-63
2022/07/23 11:22:49;;;;;;;9.27;8.40;;;;;;;28.32;48.17;99441.66;5104022;28;20063;-62
2022/07/23 11:25:21;;;;;;;10.88;9.15;;;;;;;28.23;45.29;99446.09;5098976;28;20041;-62
2022/07/23 11:27:47;;;;;;;;;;;;;;;28.32;46.78;99444.34;5105295;28;20363;-62
2022/07/23 11:30:27;;;;;;;8.20;7.40;;;;;;;28.38;47.89;99450.88;5105979;28;19912;-62
2022/07/23 11:33:12;;;;;;;8.83;7.60;;;;;;;28.38;47.84;99456.19;5106266;28;20074;-62
2022/07/23 11:35:40;;;;;;;8.15;7.35;;;;;;;28.11;46.27;99417.19;5094427;28;20694;-62
2022/07/23 11:38:18;;;;;;;8.70;7.90;;;;;;;28.09;44.64;99401.34;5105676;28;20067;-62